createdAt,value
2023-04-10T00:01:10.662Z,-1.19
2023-04-10T00:03:38.483Z,-1.19
2023-04-10T00:06:07.563Z,-1.19
2023-04-10T00:08:36.680Z,-1.21
2023-04-10T00:11:04.604Z,-1.24
2023-04-10T00:13:32.319Z,-1.29
2023-04-10T00:15:59.977Z,-1.31
2023-04-10T00:18:28.702Z,-1.26
2023-04-10T00:21:06.161Z,-1.20
2023-04-10T00:23:34.696Z,-1.23
2023-04-10T00:26:04.167Z,-1.23
2023-04-10T00:28:31.919Z,-1.24
2023-04-10T00:30:59.650Z,-1.25
2023-04-10T00:33:27.292Z,-1.30
2023-04-10T00:35:55.056Z,-1.29
2023-04-10T00:38:22.977Z,-1.38
2023-04-10T00:40:50.896Z,-1.40
2023-04-10T00:43:21.190Z,-1.43
2023-04-10T00:45:50.477Z,-1.45
2023-04-10T00:48:18.831Z,-1.48
2023-04-10T00:50:47.377Z,-1.45
2023-04-10T00:53:15.278Z,-1.52
2023-04-10T00:55:43.171Z,-1.56
2023-04-10T00:58:14.232Z,-1.65
2023-04-10T01:00:43.322Z,-1.70
2023-04-10T01:03:16.537Z,-1.72
2023-04-10T01:05:52.578Z,-1.64
2023-04-10T01:08:32.014Z,-1.61
2023-04-10T01:11:06.579Z,-1.60
2023-04-10T01:13:46.339Z,-1.62
2023-04-10T01:16:19.839Z,-1.73
2023-04-10T01:18:52.019Z,-1.79
2023-04-10T01:21:22.601Z,-1.89
2023-04-10T01:24:07.537Z,-1.93
2023-04-10T01:26:48.834Z,-1.93
2023-04-10T01:29:20.720Z,-1.99
2023-04-10T01:31:55.348Z,-2.03
2023-04-10T01:34:34.952Z,-2.04
2023-04-10T01:37:05.971Z,-1.99
2023-04-10T01:39:38.800Z,-2.02
2023-04-10T01:42:08.352Z,-2.03
2023-04-10T01:44:42.300Z,-2.04
2023-04-10T01:47:10.058Z,-2.06
2023-04-10T01:49:44.482Z,-2.08
2023-04-10T01:52:12.976Z,-2.10
2023-04-10T01:54:41.159Z,-2.13
2023-04-10T01:57:10.272Z,-2.12
2023-04-10T01:59:40.405Z,-2.11
2023-04-10T02:02:11.745Z,-2.11
2023-04-10T02:04:40.512Z,-2.12
2023-04-10T02:07:12.845Z,-2.17
2023-04-10T02:09:50.024Z,-2.15
2023-04-10T02:12:23.575Z,-2.13
2023-04-10T02:14:55.618Z,-2.12
2023-04-10T02:17:29.491Z,-2.09
2023-04-10T02:19:58.499Z,-2.09
2023-04-10T02:22:27.066Z,-2.09
2023-04-10T02:24:55.500Z,-2.07
2023-04-10T02:27:30.600Z,-2.08
2023-04-10T02:29:59.874Z,-2.08
2023-04-10T02:32:27.817Z,-2.11
2023-04-10T02:34:56.427Z,-2.14
2023-04-10T02:37:24.469Z,-2.22
2023-04-10T02:39:52.315Z,-2.23
2023-04-10T02:42:20.052Z,-2.23
2023-04-10T02:44:48.610Z,-2.21
2023-04-10T02:47:18.740Z,-2.26
2023-04-10T02:49:46.507Z,-2.22
2023-04-10T02:52:14.192Z,-2.21
2023-04-10T02:54:41.952Z,-2.18
2023-04-10T02:57:09.661Z,-2.22
2023-04-10T02:59:37.320Z,-2.24
2023-04-10T03:02:05.135Z,-2.32
2023-04-10T03:04:34.607Z,-2.37
2023-04-10T03:07:02.377Z,-2.39
2023-04-10T03:09:30.093Z,-2.44
2023-04-10T03:11:57.882Z,-2.45
2023-04-10T03:14:25.555Z,-2.42
2023-04-10T03:16:53.244Z,-2.44
2023-04-10T03:19:20.949Z,-2.43
2023-04-10T03:21:50.039Z,-2.39
2023-04-10T03:24:17.756Z,-2.41
2023-04-10T03:26:45.577Z,-2.37
2023-04-10T03:29:14.050Z,-2.36
2023-04-10T03:31:42.211Z,-2.41
2023-04-10T03:34:09.976Z,-2.43
2023-04-10T03:36:37.673Z,-2.43
2023-04-10T03:39:06.833Z,-2.47
2023-04-10T03:41:34.512Z,-2.42
2023-04-10T03:44:03.850Z,-2.44
2023-04-10T03:46:31.569Z,-2.44
2023-04-10T03:48:59.527Z,-2.45
2023-04-10T03:51:27.408Z,-2.47
2023-04-10T03:53:55.790Z,-2.51
2023-04-10T03:56:25.067Z,-2.51
2023-04-10T03:58:52.735Z,-2.52
2023-04-10T04:01:22.091Z,-2.48
2023-04-10T04:03:49.984Z,-2.46
2023-04-10T04:06:17.870Z,-2.48
2023-04-10T04:08:45.575Z,-2.50
2023-04-10T04:11:13.248Z,-2.43
2023-04-10T04:13:42.288Z,-2.45
2023-04-10T04:16:11.132Z,-2.42
2023-04-10T04:18:39.472Z,-2.43
2023-04-10T04:21:08.473Z,-2.46
2023-04-10T04:23:36.198Z,-2.50
2023-04-10T04:26:03.896Z,-2.52
2023-04-10T04:28:31.578Z,-2.54
2023-04-10T04:31:00.972Z,-2.55
2023-04-10T04:33:28.764Z,-2.54
2023-04-10T04:35:58.093Z,-2.52
2023-04-10T04:38:25.843Z,-2.46
2023-04-10T04:40:53.543Z,-2.38
2023-04-10T04:43:21.318Z,-2.26
2023-04-10T04:45:49.062Z,-2.15
2023-04-10T04:48:18.538Z,-2.09
2023-04-10T04:50:46.533Z,-2.13
2023-04-10T04:53:14.674Z,-2.11
2023-04-10T04:55:42.388Z,-2.07
2023-04-10T04:58:10.093Z,-2.04
2023-04-10T05:00:37.784Z,-2.01
2023-04-10T05:03:06.862Z,-1.95
2023-04-10T05:05:36.081Z,-1.87
2023-04-10T05:08:03.853Z,-1.80
2023-04-10T05:10:31.665Z,-1.59
2023-04-10T05:12:59.371Z,-1.55
2023-04-10T05:15:27.091Z,-1.52
2023-04-10T05:17:54.853Z,-1.51
2023-04-10T05:20:22.701Z,-1.50
2023-04-10T05:22:52.975Z,-1.50
2023-04-10T05:25:20.767Z,-1.48
2023-04-10T05:27:48.474Z,-1.45
2023-04-10T05:30:16.198Z,-1.41
2023-04-10T05:32:43.968Z,-1.35
2023-04-10T05:35:11.650Z,-1.28
2023-04-10T05:37:39.491Z,-1.18
2023-04-10T05:40:10.456Z,-1.12
2023-04-10T05:42:38.168Z,-1.00
2023-04-10T05:45:06.982Z,-0.86
2023-04-10T05:47:34.675Z,-0.73
2023-04-10T05:50:02.374Z,-0.60
2023-04-10T05:52:30.074Z,-0.57
2023-04-10T05:54:57.738Z,-0.45
2023-04-10T05:57:26.951Z,-0.35
2023-04-10T05:59:54.644Z,-0.20
2023-04-10T06:02:23.059Z,-0.08
2023-04-10T06:04:51.384Z,0.01
2023-04-10T06:07:19.081Z,0.12
2023-04-10T06:09:46.759Z,0.31
2023-04-10T06:12:14.492Z,0.42
2023-04-10T06:14:43.579Z,0.58
2023-04-10T06:17:11.404Z,0.72
2023-04-10T06:19:39.120Z,0.86
2023-04-10T06:22:07.170Z,1.05
2023-04-10T06:24:34.860Z,1.18
2023-04-10T06:27:03.240Z,1.36
2023-04-10T06:29:31.022Z,1.55
2023-04-10T06:32:00.605Z,1.71
2023-04-10T06:34:28.459Z,1.90
2023-04-10T06:36:56.169Z,2.05
2023-04-10T06:39:23.823Z,2.22
2023-04-10T06:41:51.479Z,2.38
2023-04-10T06:44:19.160Z,2.58
2023-04-10T06:46:46.992Z,2.74
2023-04-10T06:49:16.125Z,2.96
2023-04-10T06:51:45.699Z,3.14
2023-04-10T06:54:13.433Z,3.37
2023-04-10T06:56:41.359Z,3.55
2023-04-10T06:59:09.075Z,3.70
2023-04-10T07:01:36.993Z,3.85
2023-04-10T07:04:04.954Z,4.04
2023-04-10T07:06:34.023Z,4.23
2023-04-10T07:09:01.714Z,4.40
2023-04-10T07:11:29.426Z,4.55
2023-04-10T07:13:58.826Z,4.66
2023-04-10T07:16:27.489Z,4.88
2023-04-10T07:18:55.557Z,5.02
2023-04-10T07:21:23.492Z,5.15
2023-04-10T07:23:52.569Z,5.40
2023-04-10T07:26:20.669Z,5.56
2023-04-10T07:28:48.373Z,5.74
2023-04-10T07:31:17.765Z,5.91
2023-04-10T07:33:46.716Z,6.14
2023-04-10T07:36:14.673Z,6.29
2023-04-10T07:38:43.192Z,6.50
2023-04-10T07:41:12.442Z,6.57
2023-04-10T07:43:40.230Z,6.73
2023-04-10T07:46:08.448Z,6.84
2023-04-10T07:48:36.615Z,6.95
2023-04-10T07:51:04.631Z,7.10
2023-04-10T07:53:32.332Z,7.21
2023-04-10T07:56:00.118Z,7.27
2023-04-10T07:58:29.357Z,7.36
2023-04-10T08:00:57.034Z,7.52
2023-04-10T08:03:24.804Z,7.63
2023-04-10T08:05:53.004Z,7.76
2023-04-10T08:08:20.779Z,7.90
2023-04-10T08:10:48.616Z,8.01
2023-04-10T08:13:16.431Z,8.11
2023-04-10T08:15:45.724Z,8.24
2023-04-10T08:18:13.400Z,8.36
2023-04-10T08:20:41.050Z,8.55
2023-04-10T08:25:56.377Z,8.79
2023-04-10T08:28:24.264Z,9.03
2023-04-10T08:30:54.285Z,9.22
2023-04-10T08:33:22.100Z,9.40
2023-04-10T08:35:49.882Z,9.54
2023-04-10T08:38:17.584Z,9.53
2023-04-10T08:40:45.393Z,9.41
2023-04-10T08:43:13.196Z,9.44
2023-04-10T08:45:41.885Z,9.61
2023-04-10T08:48:11.907Z,9.71
2023-04-10T08:50:43.224Z,9.87
2023-04-10T08:53:13.096Z,9.92
2023-04-10T08:55:49.746Z,9.94
2023-04-10T08:58:17.779Z,10.02
2023-04-10T09:00:45.572Z,10.13
2023-04-10T09:03:17.550Z,10.41
2023-04-10T09:05:45.355Z,10.44
2023-04-10T09:08:15.989Z,10.57
2023-04-10T09:10:43.671Z,10.66
2023-04-10T09:13:11.330Z,10.78
2023-04-10T09:15:58.406Z,10.82
2023-04-10T09:18:42.454Z,10.97
2023-04-10T09:21:11.062Z,11.06
2023-04-10T09:23:39.287Z,11.18
2023-04-10T09:26:23.909Z,11.51
2023-04-10T09:29:02.758Z,11.44
2023-04-10T09:31:32.698Z,11.59
2023-04-10T09:34:12.957Z,11.90
2023-04-10T09:36:42.409Z,12.12
2023-04-10T09:39:11.747Z,12.39
2023-04-10T09:41:50.315Z,12.50
2023-04-10T09:44:20.019Z,12.60
2023-04-10T09:46:49.609Z,12.99
2023-04-10T09:49:18.828Z,13.11
2023-04-10T09:51:47.426Z,13.27
2023-04-10T09:54:15.299Z,13.37
2023-04-10T09:56:46.476Z,13.65
2023-04-10T09:59:15.651Z,13.90
2023-04-10T10:01:44.014Z,13.97
2023-04-10T10:04:15.623Z,14.27
2023-04-10T10:06:45.253Z,14.58
2023-04-10T10:09:16.475Z,14.82
2023-04-10T10:11:44.355Z,14.79
2023-04-10T10:14:18.611Z,14.73
2023-04-10T10:16:51.006Z,14.86
2023-04-10T10:19:24.520Z,15.05
2023-04-10T10:21:55.968Z,15.25
2023-04-10T10:24:26.412Z,15.61
2023-04-10T10:26:57.235Z,15.72
2023-04-10T10:29:25.577Z,15.74
2023-04-10T10:31:55.101Z,15.86
2023-04-10T10:34:23.245Z,15.89
2023-04-10T10:36:51.427Z,16.02
2023-04-10T10:39:33.744Z,16.06
2023-04-10T10:42:10.058Z,15.62
2023-04-10T10:44:43.904Z,16.30
2023-04-10T10:47:17.292Z,16.26
2023-04-10T10:49:58.430Z,15.57
2023-04-10T10:52:39.970Z,16.53
2023-04-10T10:55:35.946Z,17.02
2023-04-10T10:58:08.591Z,17.24
2023-04-10T11:01:18.908Z,16.82
2023-04-10T11:03:47.161Z,17.00
2023-04-10T11:06:19.395Z,16.97
2023-04-10T11:08:48.381Z,16.74
2023-04-10T11:11:20.032Z,16.53
2023-04-10T11:14:20.138Z,16.83
2023-04-10T11:16:48.913Z,17.28
2023-04-10T11:19:22.522Z,17.30
2023-04-10T11:22:05.498Z,17.11
2023-04-10T11:24:58.968Z,17.42
2023-04-10T11:27:55.551Z,17.72
2023-04-10T11:30:34.556Z,18.30
2023-04-10T11:33:04.076Z,18.36
2023-04-10T11:35:33.155Z,18.63
2023-04-10T11:38:11.458Z,17.91
2023-04-10T11:40:58.626Z,18.52
2023-04-10T11:43:27.791Z,18.62
2023-04-10T11:46:04.063Z,18.92
2023-04-10T11:48:32.414Z,18.71
2023-04-10T11:51:02.062Z,17.76
2023-04-10T11:53:30.183Z,17.63
2023-04-10T11:55:58.482Z,17.56
2023-04-10T11:58:29.937Z,17.90
2023-04-10T12:01:02.255Z,18.43
2023-04-10T12:03:38.022Z,18.87
2023-04-10T12:06:08.745Z,18.69
2023-04-10T12:08:37.860Z,18.56
2023-04-10T12:11:06.147Z,18.37
2023-04-10T12:13:35.730Z,18.44
2023-04-10T12:16:05.956Z,18.68
2023-04-10T12:18:34.487Z,18.83
2023-04-10T12:21:02.694Z,18.90
2023-04-10T12:23:31.457Z,18.71
2023-04-10T12:26:11.842Z,18.96
2023-04-10T12:28:42.910Z,18.64
2023-04-10T12:31:11.132Z,18.63
2023-04-10T12:33:38.948Z,18.92
2023-04-10T12:36:07.372Z,18.65
2023-04-10T12:38:40.166Z,18.57
2023-04-10T12:41:08.590Z,18.31
2023-04-10T12:43:38.573Z,18.04
2023-04-10T12:46:09.237Z,18.16
2023-04-10T12:48:37.225Z,18.02
2023-04-10T12:51:05.365Z,17.91
2023-04-10T12:53:43.441Z,17.60
2023-04-10T12:56:12.252Z,17.91
2023-04-10T12:58:42.420Z,17.96
2023-04-10T13:01:11.493Z,17.96
2023-04-10T13:03:39.609Z,17.62
2023-04-10T13:06:08.673Z,17.39
2023-04-10T13:08:37.361Z,17.15
2023-04-10T13:11:05.727Z,16.88
2023-04-10T13:13:33.664Z,16.98
2023-04-10T13:16:01.497Z,16.81
2023-04-10T13:18:30.605Z,16.67
2023-04-10T13:20:58.264Z,16.66
2023-04-10T13:23:25.949Z,16.87
2023-04-10T13:25:53.681Z,16.95
2023-04-10T13:28:21.832Z,17.26
2023-04-10T13:30:49.542Z,17.40
2023-04-10T13:33:17.224Z,17.64
2023-04-10T13:35:46.359Z,18.24
2023-04-10T13:38:14.032Z,18.61
2023-04-10T13:40:41.747Z,19.78
2023-04-10T13:43:09.432Z,20.55
2023-04-10T13:45:37.144Z,22.27
2023-04-10T13:48:07.198Z,23.38
2023-04-10T13:50:35.176Z,24.93
2023-04-10T13:53:04.216Z,24.39
2023-04-10T13:55:31.903Z,22.29
2023-04-10T13:57:59.573Z,20.30
2023-04-10T14:00:27.706Z,19.19
2023-04-10T14:02:55.619Z,18.54
2023-04-10T14:05:23.516Z,18.08
2023-04-10T14:07:56.730Z,17.45
2023-04-10T14:10:25.838Z,17.08
2023-04-10T14:12:53.548Z,16.58
2023-04-10T14:15:21.323Z,17.06
2023-04-10T14:17:49.058Z,17.15
2023-04-10T14:20:16.780Z,16.96
2023-04-10T14:22:44.424Z,16.84
2023-04-10T14:25:15.860Z,17.00
2023-04-10T14:27:45.597Z,17.58
2023-04-10T14:30:13.821Z,18.89
2023-04-10T14:32:41.616Z,18.20
2023-04-10T14:35:10.341Z,17.27
2023-04-10T14:37:38.333Z,16.88
2023-04-10T14:40:07.256Z,16.45
2023-04-10T14:42:34.997Z,15.95
2023-04-10T14:45:05.555Z,15.96
2023-04-10T14:47:33.403Z,15.98
2023-04-10T14:50:01.125Z,16.04
2023-04-10T14:52:28.793Z,16.07
2023-04-10T14:54:56.535Z,16.09
2023-04-10T14:57:24.295Z,16.10
2023-04-10T14:59:51.972Z,16.21
2023-04-10T15:02:21.104Z,16.09
2023-04-10T15:04:48.973Z,15.86
2023-04-10T15:07:16.660Z,15.72
2023-04-10T15:09:44.591Z,15.58
2023-04-10T15:12:12.313Z,15.54
2023-04-10T15:14:40.081Z,15.49
2023-04-10T15:17:07.894Z,15.40
2023-04-10T15:19:36.960Z,15.36
2023-04-10T15:22:04.670Z,15.38
2023-04-10T15:24:39.885Z,15.44
2023-04-10T15:27:15.091Z,15.47
2023-04-10T15:29:43.872Z,15.63
2023-04-10T15:32:11.538Z,15.58
2023-04-10T15:34:41.414Z,15.67
2023-04-10T15:37:09.116Z,15.81
2023-04-10T15:39:37.607Z,15.73
2023-04-10T15:42:07.453Z,15.80
2023-04-10T15:44:35.190Z,15.82
2023-04-10T15:47:02.970Z,15.78
2023-04-10T15:49:37.684Z,15.80
2023-04-10T15:52:08.236Z,15.86
2023-04-10T15:54:36.126Z,15.95
2023-04-10T15:57:04.327Z,15.90
2023-04-10T15:59:33.413Z,15.70
2023-04-10T16:02:01.274Z,16.14
2023-04-10T16:04:29.348Z,16.37
2023-04-10T16:06:57.287Z,16.59
2023-04-10T16:09:27.023Z,16.34
2023-04-10T16:11:54.938Z,16.25
2023-04-10T16:14:22.821Z,15.99
2023-04-10T16:16:57.799Z,15.85
2023-04-10T16:19:25.484Z,15.75
2023-04-10T16:21:53.345Z,15.53
2023-04-10T16:24:21.040Z,15.42
2023-04-10T16:26:50.201Z,15.18
2023-04-10T16:29:19.793Z,14.93
2023-04-10T16:31:47.539Z,14.87
2023-04-10T16:34:15.357Z,14.72
2023-04-10T16:36:43.548Z,14.67
2023-04-10T16:39:11.231Z,14.60
2023-04-10T16:41:39.005Z,14.52
2023-04-10T16:44:08.062Z,14.43
2023-04-10T16:46:36.215Z,14.40
2023-04-10T16:49:05.326Z,14.37
2023-04-10T16:51:33.018Z,14.26
2023-04-10T16:54:00.834Z,14.13
2023-04-10T16:56:28.529Z,13.98
2023-04-10T16:58:57.405Z,13.84
2023-04-10T17:01:27.168Z,13.54
2023-04-10T17:03:55.469Z,13.41
2023-04-10T17:06:23.251Z,13.19
2023-04-10T17:08:51.014Z,13.06
2023-04-10T17:11:18.726Z,12.94
2023-04-10T17:13:47.193Z,12.73
2023-04-10T17:16:15.580Z,12.56
2023-04-10T17:18:45.025Z,12.41
2023-04-10T17:21:13.152Z,12.22
2023-04-10T17:23:40.938Z,12.03
2023-04-10T17:26:14.329Z,11.90
2023-04-10T17:28:44.312Z,11.80
2023-04-10T17:31:12.108Z,11.77
2023-04-10T17:33:41.672Z,11.59
2023-04-10T17:36:12.280Z,11.43
2023-04-10T17:38:40.375Z,11.29
2023-04-10T17:41:09.215Z,11.16
2023-04-10T17:43:37.120Z,11.07
2023-04-10T17:46:04.933Z,10.98
2023-04-10T17:48:34.387Z,10.84
2023-04-10T17:51:06.202Z,10.74
2023-04-10T17:53:35.840Z,10.64
2023-04-10T17:56:03.612Z,10.53
2023-04-10T17:58:31.512Z,10.49
2023-04-10T18:00:59.213Z,10.39
2023-04-10T18:03:27.043Z,10.31
2023-04-10T18:05:54.812Z,10.23
2023-04-10T18:08:22.469Z,10.15
2023-04-10T18:10:51.544Z,10.08
2023-04-10T18:13:19.529Z,9.99
2023-04-10T18:15:47.321Z,9.93
2023-04-10T18:18:14.985Z,9.83
2023-04-10T18:20:42.669Z,9.81
2023-04-10T18:23:10.306Z,9.71
2023-04-10T18:25:38.030Z,9.72
2023-04-10T18:30:39.504Z,9.59
2023-04-10T18:33:20.487Z,9.47
2023-04-10T18:35:48.200Z,9.40
2023-04-10T18:38:15.893Z,9.36
2023-04-10T18:40:43.560Z,9.31
2023-04-10T18:43:12.649Z,9.28
2023-04-10T18:45:42.095Z,9.22
2023-04-10T18:48:10.000Z,9.15
2023-04-10T18:50:39.022Z,9.12
2023-04-10T18:53:06.720Z,9.07
2023-04-10T18:55:34.447Z,9.02
2023-04-10T18:58:02.114Z,8.95
2023-04-10T19:00:32.023Z,8.88
2023-04-10T19:02:59.763Z,8.78
2023-04-10T19:05:27.674Z,8.74
2023-04-10T19:08:03.597Z,8.62
2023-04-10T19:10:33.993Z,8.52
2023-04-10T19:13:01.679Z,8.46
2023-04-10T19:15:31.456Z,8.38
2023-04-10T19:17:59.214Z,8.26
2023-04-10T19:20:50.231Z,8.19
2023-04-10T19:23:14.629Z,8.10
2023-04-10T19:25:52.625Z,7.97
2023-04-10T19:28:20.461Z,7.82
2023-04-10T19:30:49.765Z,7.73
2023-04-10T19:33:18.004Z,7.69
2023-04-10T19:35:45.704Z,7.58
2023-04-10T19:38:13.434Z,7.57
2023-04-10T19:40:41.088Z,7.52
2023-04-10T19:43:08.877Z,7.52
2023-04-10T19:45:37.416Z,7.55
2023-04-10T19:48:07.937Z,7.62
2023-04-10T19:50:35.634Z,7.68
2023-04-10T19:53:03.350Z,7.78
2023-04-10T19:55:31.578Z,7.84
2023-04-10T19:57:59.274Z,7.84
2023-04-10T20:00:27.049Z,7.88
2023-04-10T20:02:55.147Z,7.86
2023-04-10T20:05:24.361Z,7.86
2023-04-10T20:07:52.174Z,7.84
2023-04-10T20:10:20.610Z,7.79
2023-04-10T20:12:48.361Z,7.83
2023-04-10T20:15:16.084Z,7.77
2023-04-10T20:17:43.808Z,7.81
2023-04-10T20:20:13.252Z,7.85
2023-04-10T20:22:43.065Z,7.82
2023-04-10T20:25:11.095Z,7.85
2023-04-10T20:27:38.792Z,7.85
2023-04-10T20:30:07.909Z,7.84
2023-04-10T20:32:35.694Z,7.75
2023-04-10T20:35:03.468Z,7.66
2023-04-10T20:37:31.190Z,7.52
2023-04-10T20:40:00.849Z,7.48
2023-04-10T20:42:28.778Z,7.30
2023-04-10T20:44:56.516Z,7.30
2023-04-10T20:47:24.222Z,7.22
2023-04-10T20:49:51.876Z,7.23
2023-04-10T20:52:19.511Z,7.16
2023-04-10T20:54:47.199Z,7.18
2023-04-10T20:57:16.196Z,7.09
2023-04-10T20:59:44.085Z,6.98
2023-04-10T21:02:13.166Z,6.96
2023-04-10T21:04:40.946Z,6.93
2023-04-10T21:07:08.654Z,6.90
2023-04-10T21:09:36.396Z,6.90
2023-04-10T21:12:04.372Z,6.83
2023-04-10T21:14:33.402Z,6.82
2023-04-10T21:17:01.212Z,6.74
2023-04-10T21:19:29.146Z,6.66
2023-04-10T21:21:57.157Z,6.60
2023-04-10T21:24:24.859Z,6.59
2023-04-10T21:26:52.550Z,6.57
2023-04-10T21:29:20.240Z,6.59
2023-04-10T21:31:53.735Z,6.62
2023-04-10T21:34:21.499Z,6.60
2023-04-10T21:36:49.419Z,6.52
2023-04-10T21:39:17.065Z,6.42
2023-04-10T21:41:45.124Z,6.32
2023-04-10T21:44:12.808Z,6.24
2023-04-10T21:46:40.415Z,6.17
2023-04-10T21:49:10.324Z,6.14
2023-04-10T21:51:38.069Z,6.12
2023-04-10T21:54:05.861Z,6.03
2023-04-10T21:56:35.428Z,5.98
2023-04-10T21:59:03.508Z,5.92
2023-04-10T22:01:31.227Z,5.87
2023-04-10T22:03:59.006Z,5.81
2023-04-10T22:06:28.104Z,5.76
2023-04-10T22:08:55.865Z,5.70
2023-04-10T22:11:23.706Z,5.67
2023-04-10T22:13:52.181Z,5.64
2023-04-10T22:16:21.561Z,5.66
2023-04-10T22:18:49.491Z,5.63
2023-04-10T22:21:17.222Z,5.63
2023-04-10T22:23:46.285Z,5.59
2023-04-10T22:26:13.973Z,5.57
2023-04-10T22:28:41.684Z,5.57
2023-04-10T22:31:15.453Z,5.61
2023-04-10T22:33:43.248Z,5.69
2023-04-10T22:36:11.139Z,5.83
2023-04-10T22:38:39.017Z,5.90
2023-04-10T22:41:10.758Z,6.14
2023-04-10T22:43:38.404Z,6.31
2023-04-10T22:46:06.383Z,6.61
2023-04-10T22:48:34.112Z,6.79
2023-04-10T22:51:01.801Z,6.90
2023-04-10T22:59:18.338Z,7.10
2023-04-10T23:01:46.180Z,7.17
2023-04-10T23:04:14.034Z,7.33
2023-04-10T23:06:41.759Z,7.48
2023-04-10T23:09:09.424Z,7.57
2023-04-10T23:11:37.608Z,7.68
2023-04-10T23:14:05.255Z,7.78
2023-04-10T23:16:34.395Z,7.81
2023-04-10T23:19:02.091Z,7.90
2023-04-10T23:21:29.764Z,7.93
2023-04-10T23:23:57.371Z,7.98
2023-04-10T23:26:25.022Z,8.04
2023-04-10T23:28:52.981Z,8.14
2023-04-10T23:31:20.902Z,8.13
2023-04-10T23:33:50.009Z,8.15
2023-04-10T23:36:17.736Z,8.20
2023-04-10T23:38:45.426Z,8.27
2023-04-10T23:41:13.144Z,8.29
2023-04-10T23:43:41.078Z,8.37
2023-04-10T23:46:08.873Z,8.46
2023-04-10T23:48:36.559Z,8.45
2023-04-10T23:51:07.241Z,8.50
2023-04-10T23:53:35.331Z,8.52
2023-04-10T23:56:03.126Z,8.59
2023-04-10T23:58:30.922Z,8.65
